Airfield :
LOGIN :

Register | Disclaimer

   EN    FR    IT 

 










Legend :    VFR   Marginal VFR   IFR   Intensive IFR   Very Intensive IFR
Visi :
Ceiling :
>= 8 km
>= 3000ft
5 to 8 km
1000 to 3000 ft
1500m to 5 km
500 to 1000 ft
800 to 1500m
200 to 500 ft
< 800m
< 200 ft
Symbols :   Thunderstorms  Fog  Heavy snow  Heavy precipitations  Wind > 20 kt
SIGMETs :     Misc.  Thunderstorms  Icing  Turbulence  Mountain Waves  Volcanic Ashes







- Airport Elevation : 1830 ft


EBLB - Butgenbach Elsenborn

CURRENT METAR :
  • 130555Z AUTO 09007KT 9999 BKN011/// M02/M03 Q1017 GRN

EXPIRED METARs :
  • 130549Z AUTO 09006KT 9999 SCT011/// M02/M03 Q1017 GRN
  • 130525Z AUTO 09004KT 9999 FEW013/// M03/M04 Q1017 BLU
  • 130519Z AUTO 09004KT 9999 FEW013/// M02/M04 Q1017 BLU
  • 130455Z AUTO 09003KT 9999 BKN013/// M02/M04 Q1017 GRN
  • 130425Z AUTO 09003KT 9999 BKN013/// M02/M03 Q1017 GRN
  • 130355Z AUTO 09004KT 9999 BKN010/// M01/M02 Q1018 GRN
  • 130325Z AUTO 09004KT 9999 BKN008/// M02/M03 Q1018 GRN

Expired Forecast.
No reported NOTAMs for that airfield.



MET'MAP, your aeronautical weather chart ! - Copyright ORBIFLY December 2007 - Disclaimer

ORBIFLY MET'MAP TEAM :

Programming & Development : Alexandra Zaïnal
Concept & Development : Baudouin d'Aumeries
Co-Development & Prog : Marc-Olivier Méhu
Technical & hardware support : Manuel Goepfert

Contact : metmap@orbifly.com




SOURCES & CREDITS :

   NOAA